sensor_id;sensor_type;location;lat;lon;timestamp;temperature;humidity
64501;DHT22;50874;24.150;-110.320;2023-02-17T00:01:21;18.50;94.60
64501;DHT22;50874;24.150;-110.320;2023-02-17T00:03:51;18.30;94.70
64501;DHT22;50874;24.150;-110.320;2023-02-17T00:06:21;18.00;94.90
64501;DHT22;50874;24.150;-110.320;2023-02-17T00:08:48;17.90;94.90
64501;DHT22;50874;24.150;-110.320;2023-02-17T00:11:15;17.80;95.70
64501;DHT22;50874;24.150;-110.320;2023-02-17T00:13:42;17.60;96.30
64501;DHT22;50874;24.150;-110.320;2023-02-17T00:16:29;17.50;96.50
64501;DHT22;50874;24.150;-110.320;2023-02-17T00:18:58;17.50;96.70
64501;DHT22;50874;24.150;-110.320;2023-02-17T00:21:27;17.60;96.90
64501;DHT22;50874;24.150;-110.320;2023-02-17T00:23:55;17.60;97.00
64501;DHT22;50874;24.150;-110.320;2023-02-17T00:26:21;17.60;96.30
64501;DHT22;50874;24.150;-110.320;2023-02-17T00:28:48;17.30;95.70
64501;DHT22;50874;24.150;-110.320;2023-02-17T00:31:20;17.30;95.90
64501;DHT22;50874;24.150;-110.320;2023-02-17T00:33:47;17.40;95.80
64501;DHT22;50874;24.150;-110.320;2023-02-17T00:36:17;17.50;96.10
64501;DHT22;50874;24.150;-110.320;2023-02-17T00:38:44;17.50;96.00
64501;DHT22;50874;24.150;-110.320;2023-02-17T00:41:12;17.60;95.60
64501;DHT22;50874;24.150;-110.320;2023-02-17T00:43:39;17.60;95.10
64501;DHT22;50874;24.150;-110.320;2023-02-17T00:46:05;17.60;94.60
64501;DHT22;50874;24.150;-110.320;2023-02-17T00:48:32;17.50;94.70
64501;DHT22;50874;24.150;-110.320;2023-02-17T00:50:59;17.60;95.10
64501;DHT22;50874;24.150;-110.320;2023-02-17T00:53:26;17.60;94.90
64501;DHT22;50874;24.150;-110.320;2023-02-17T00:55:52;17.50;95.30
64501;DHT22;50874;24.150;-110.320;2023-02-17T00:58:19;17.40;95.70
64501;DHT22;50874;24.150;-110.320;2023-02-17T01:00:45;17.30;95.20
64501;DHT22;50874;24.150;-110.320;2023-02-17T01:03:12;17.10;95.30
64501;DHT22;50874;24.150;-110.320;2023-02-17T01:05:42;17.10;95.70
64501;DHT22;50874;24.150;-110.320;2023-02-17T01:08:10;17.10;96.10
64501;DHT22;50874;24.150;-110.320;2023-02-17T01:10:39;17.00;96.20
64501;DHT22;50874;24.150;-110.320;2023-02-17T01:13:06;16.90;95.90
64501;DHT22;50874;24.150;-110.320;2023-02-17T01:15:45;16.80;95.10
64501;DHT22;50874;24.150;-110.320;2023-02-17T01:18:12;16.70;95.20
64501;DHT22;50874;24.150;-110.320;2023-02-17T01:20:40;16.60;95.50
64501;DHT22;50874;24.150;-110.320;2023-02-17T01:23:08;16.60;95.80
64501;DHT22;50874;24.150;-110.320;2023-02-17T01:25:42;16.60;96.30
64501;DHT22;50874;24.150;-110.320;2023-02-17T01:28:13;16.60;96.50
64501;DHT22;50874;24.150;-110.320;2023-02-17T01:30:40;16.50;96.90
64501;DHT22;50874;24.150;-110.320;2023-02-17T01:33:06;16.40;96.60
64501;DHT22;50874;24.150;-110.320;2023-02-17T01:35:33;16.40;96.80
64501;DHT22;50874;24.150;-110.320;2023-02-17T01:38:00;16.40;96.20
64501;DHT22;50874;24.150;-110.320;2023-02-17T01:40:26;16.30;96.50
64501;DHT22;50874;24.150;-110.320;2023-02-17T01:42:53;16.30;97.10
64501;DHT22;50874;24.150;-110.320;2023-02-17T01:50:25;16.20;97.40
64501;DHT22;50874;24.150;-110.320;2023-02-17T01:52:54;16.20;97.50
64501;DHT22;50874;24.150;-110.320;2023-02-17T01:55:21;16.20;97.30
64501;DHT22;50874;24.150;-110.320;2023-02-17T01:57:50;16.10;97.50
64501;DHT22;50874;24.150;-110.320;2023-02-17T02:00:18;16.10;97.80
64501;DHT22;50874;24.150;-110.320;2023-02-17T02:02:47;16.10;98.10
64501;DHT22;50874;24.150;-110.320;2023-02-17T02:05:15;16.10;98.30
64501;DHT22;50874;24.150;-110.320;2023-02-17T02:07:43;16.00;98.60
64501;DHT22;50874;24.150;-110.320;2023-02-17T02:10:12;16.00;99.00
64501;DHT22;50874;24.150;-110.320;2023-02-17T02:12:41;16.00;98.90
64501;DHT22;50874;24.150;-110.320;2023-02-17T02:15:11;16.00;99.00
64501;DHT22;50874;24.150;-110.320;2023-02-17T02:27:27;15.90;99.90
64501;DHT22;50874;24.150;-110.320;2023-02-17T02:32:52;15.80;99.90
64501;DHT22;50874;24.150;-110.320;2023-02-17T02:35:29;15.80;99.90
64501;DHT22;50874;24.150;-110.320;2023-02-17T02:40:46;15.80;99.90
64501;DHT22;50874;24.150;-110.320;2023-02-17T02:43:15;15.70;99.90
64501;DHT22;50874;24.150;-110.320;2023-02-17T02:45:42;15.70;99.90
64501;DHT22;50874;24.150;-110.320;2023-02-17T02:48:09;15.70;99.90
64501;DHT22;50874;24.150;-110.320;2023-02-17T03:02:21;15.70;99.90
64501;DHT22;50874;24.150;-110.320;2023-02-17T03:07:37;15.60;99.90
64501;DHT22;50874;24.150;-110.320;2023-02-17T03:10:06;15.60;99.90
64501;DHT22;50874;24.150;-110.320;2023-02-17T03:12:34;15.60;99.90
64501;DHT22;50874;24.150;-110.320;2023-02-17T03:15:14;15.60;99.90
64501;DHT22;50874;24.150;-110.320;2023-02-17T03:17:41;15.50;99.90
64501;DHT22;50874;24.150;-110.320;2023-02-17T03:20:08;15.50;99.90
64501;DHT22;50874;24.150;-110.320;2023-02-17T03:22:39;15.50;99.90
64501;DHT22;50874;24.150;-110.320;2023-02-17T03:25:07;15.50;99.90
64501;DHT22;50874;24.150;-110.320;2023-02-17T03:27:33;15.50;99.90
64501;DHT22;50874;24.150;-110.320;2023-02-17T03:30:00;15.50;99.90
64501;DHT22;50874;24.150;-110.320;2023-02-17T03:32:26;15.50;99.90
64501;DHT22;50874;24.150;-110.320;2023-02-17T03:34:53;15.40;99.90
64501;DHT22;50874;24.150;-110.320;2023-02-17T03:37:19;15.40;99.90
64501;DHT22;50874;24.150;-110.320;2023-02-17T03:39:46;15.40;99.90
64501;DHT22;50874;24.150;-110.320;2023-02-17T03:42:12;15.40;99.90
64501;DHT22;50874;24.150;-110.320;2023-02-17T03:44:39;15.40;99.90
64501;DHT22;50874;24.150;-110.320;2023-02-17T03:47:06;15.30;99.90
64501;DHT22;50874;24.150;-110.320;2023-02-17T03:49:32;15.30;99.90
64501;DHT22;50874;24.150;-110.320;2023-02-17T03:51:59;15.30;99.90
64501;DHT22;50874;24.150;-110.320;2023-02-17T03:54:26;15.30;99.90
64501;DHT22;50874;24.150;-110.320;2023-02-17T03:56:52;15.30;99.90
64501;DHT22;50874;24.150;-110.320;2023-02-17T03:59:19;15.20;99.90
64501;DHT22;50874;24.150;-110.320;2023-02-17T04:01:45;15.30;99.90
64501;DHT22;50874;24.150;-110.320;2023-02-17T04:04:12;15.30;99.90
64501;DHT22;50874;24.150;-110.320;2023-02-17T04:06:38;15.20;99.90
64501;DHT22;50874;24.150;-110.320;2023-02-17T04:09:04;15.20;99.90
64501;DHT22;50874;24.150;-110.320;2023-02-17T04:11:31;15.20;99.90
64501;DHT22;50874;24.150;-110.320;2023-02-17T04:13:57;15.20;99.90
64501;DHT22;50874;24.150;-110.320;2023-02-17T04:16:24;15.10;99.90
64501;DHT22;50874;24.150;-110.320;2023-02-17T04:18:50;15.10;99.90
64501;DHT22;50874;24.150;-110.320;2023-02-17T04:21:17;15.10;99.90
64501;DHT22;50874;24.150;-110.320;2023-02-17T04:23:43;15.10;99.90
64501;DHT22;50874;24.150;-110.320;2023-02-17T04:26:10;15.00;99.90
64501;DHT22;50874;24.150;-110.320;2023-02-17T04:28:40;15.10;99.90
64501;DHT22;50874;24.150;-110.320;2023-02-17T04:31:08;15.00;99.90
64501;DHT22;50874;24.150;-110.320;2023-02-17T04:33:34;15.00;99.90
64501;DHT22;50874;24.150;-110.320;2023-02-17T04:36:01;15.00;99.90
64501;DHT22;50874;24.150;-110.320;2023-02-17T04:38:30;14.90;99.90
64501;DHT22;50874;24.150;-110.320;2023-02-17T04:40:57;14.90;99.90
64501;DHT22;50874;24.150;-110.320;2023-02-17T04:43:26;14.80;99.90
64501;DHT22;50874;24.150;-110.320;2023-02-17T04:45:53;14.80;99.90
64501;DHT22;50874;24.150;-110.320;2023-02-17T04:48:19;14.80;99.90
64501;DHT22;50874;24.150;-110.320;2023-02-17T04:50:46;14.70;99.90
64501;DHT22;50874;24.150;-110.320;2023-02-17T04:53:13;14.70;99.90
64501;DHT22;50874;24.150;-110.320;2023-02-17T04:55:40;14.70;99.90
64501;DHT22;50874;24.150;-110.320;2023-02-17T04:58:07;14.70;99.90
64501;DHT22;50874;24.150;-110.320;2023-02-17T05:00:34;14.70;99.90
64501;DHT22;50874;24.150;-110.320;2023-02-17T05:03:00;14.80;99.90
64501;DHT22;50874;24.150;-110.320;2023-02-17T05:05:27;14.70;99.90
64501;DHT22;50874;24.150;-110.320;2023-02-17T05:07:53;14.70;99.90
64501;DHT22;50874;24.150;-110.320;2023-02-17T05:10:20;14.70;99.90
64501;DHT22;50874;24.150;-110.320;2023-02-17T05:12:47;14.70;99.90
64501;DHT22;50874;24.150;-110.320;2023-02-17T05:15:13;14.60;99.90
64501;DHT22;50874;24.150;-110.320;2023-02-17T05:17:40;14.70;99.90
64501;DHT22;50874;24.150;-110.320;2023-02-17T05:20:07;14.60;99.90
64501;DHT22;50874;24.150;-110.320;2023-02-17T05:22:34;14.60;99.90
64501;DHT22;50874;24.150;-110.320;2023-02-17T05:25:00;14.60;99.90
64501;DHT22;50874;24.150;-110.320;2023-02-17T05:27:26;14.60;99.90
64501;DHT22;50874;24.150;-110.320;2023-02-17T05:29:53;14.60;99.90
64501;DHT22;50874;24.150;-110.320;2023-02-17T05:32:20;14.60;99.90
64501;DHT22;50874;24.150;-110.320;2023-02-17T05:34:47;14.70;99.90
64501;DHT22;50874;24.150;-110.320;2023-02-17T05:37:13;14.70;99.90
64501;DHT22;50874;24.150;-110.320;2023-02-17T05:39:40;14.60;99.90
64501;DHT22;50874;24.150;-110.320;2023-02-17T05:42:06;14.60;99.90
64501;DHT22;50874;24.150;-110.320;2023-02-17T05:44:33;14.60;99.90
64501;DHT22;50874;24.150;-110.320;2023-02-17T05:46:59;14.60;99.90
64501;DHT22;50874;24.150;-110.320;2023-02-17T05:49:26;14.60;99.90
64501;DHT22;50874;24.150;-110.320;2023-02-17T05:51:52;14.60;99.90
64501;DHT22;50874;24.150;-110.320;2023-02-17T05:54:19;14.60;99.90
64501;DHT22;50874;24.150;-110.320;2023-02-17T05:56:45;14.50;99.90
64501;DHT22;50874;24.150;-110.320;2023-02-17T05:59:12;14.50;99.90
64501;DHT22;50874;24.150;-110.320;2023-02-17T06:01:38;14.60;99.90
64501;DHT22;50874;24.150;-110.320;2023-02-17T06:04:05;14.50;99.90
64501;DHT22;50874;24.150;-110.320;2023-02-17T06:06:31;14.50;99.90
64501;DHT22;50874;24.150;-110.320;2023-02-17T06:08:57;14.50;99.90
64501;DHT22;50874;24.150;-110.320;2023-02-17T06:11:25;14.40;99.90
64501;DHT22;50874;24.150;-110.320;2023-02-17T06:13:51;14.40;99.90
64501;DHT22;50874;24.150;-110.320;2023-02-17T06:16:17;14.30;99.90
64501;DHT22;50874;24.150;-110.320;2023-02-17T06:18:44;14.30;99.90
64501;DHT22;50874;24.150;-110.320;2023-02-17T06:21:10;14.30;99.90
64501;DHT22;50874;24.150;-110.320;2023-02-17T06:23:39;14.30;99.90
64501;DHT22;50874;24.150;-110.320;2023-02-17T06:26:06;14.20;99.90
64501;DHT22;50874;24.150;-110.320;2023-02-17T06:28:32;14.20;99.90
64501;DHT22;50874;24.150;-110.320;2023-02-17T06:30:58;14.20;99.90
64501;DHT22;50874;24.150;-110.320;2023-02-17T06:33:25;14.20;99.90
64501;DHT22;50874;24.150;-110.320;2023-02-17T06:35:52;14.20;99.90
64501;DHT22;50874;24.150;-110.320;2023-02-17T06:38:18;14.20;99.90
64501;DHT22;50874;24.150;-110.320;2023-02-17T06:40:45;14.20;99.90
64501;DHT22;50874;24.150;-110.320;2023-02-17T06:43:11;14.30;99.90
64501;DHT22;50874;24.150;-110.320;2023-02-17T06:45:38;14.20;99.90
64501;DHT22;50874;24.150;-110.320;2023-02-17T06:48:04;14.30;99.90
64501;DHT22;50874;24.150;-110.320;2023-02-17T06:50:31;14.20;99.90
64501;DHT22;50874;24.150;-110.320;2023-02-17T06:52:57;14.20;99.90
64501;DHT22;50874;24.150;-110.320;2023-02-17T06:55:24;14.10;99.90
64501;DHT22;50874;24.150;-110.320;2023-02-17T06:57:50;14.10;99.90
64501;DHT22;50874;24.150;-110.320;2023-02-17T07:00:17;14.10;99.90
64501;DHT22;50874;24.150;-110.320;2023-02-17T07:02:44;14.10;99.90
64501;DHT22;50874;24.150;-110.320;2023-02-17T07:05:10;14.10;99.90
64501;DHT22;50874;24.150;-110.320;2023-02-17T07:07:37;14.10;99.90
64501;DHT22;50874;24.150;-110.320;2023-02-17T07:10:03;14.10;99.90
64501;DHT22;50874;24.150;-110.320;2023-02-17T07:12:30;14.10;99.90
64501;DHT22;50874;24.150;-110.320;2023-02-17T07:14:56;14.00;99.90
64501;DHT22;50874;24.150;-110.320;2023-02-17T07:17:23;14.00;99.90
64501;DHT22;50874;24.150;-110.320;2023-02-17T07:19:49;14.10;99.90
64501;DHT22;50874;24.150;-110.320;2023-02-17T07:22:16;14.20;99.90
64501;DHT22;50874;24.150;-110.320;2023-02-17T07:24:42;14.20;99.90
64501;DHT22;50874;24.150;-110.320;2023-02-17T07:27:09;14.20;99.90
64501;DHT22;50874;24.150;-110.320;2023-02-17T07:29:35;14.30;99.90
64501;DHT22;50874;24.150;-110.320;2023-02-17T07:32:02;14.40;99.90
64501;DHT22;50874;24.150;-110.320;2023-02-17T07:34:28;14.30;99.90
64501;DHT22;50874;24.150;-110.320;2023-02-17T07:36:55;14.20;99.90
64501;DHT22;50874;24.150;-110.320;2023-02-17T07:39:22;14.20;99.90
64501;DHT22;50874;24.150;-110.320;2023-02-17T07:41:48;14.20;99.90
64501;DHT22;50874;24.150;-110.320;2023-02-17T07:44:14;14.20;99.90
64501;DHT22;50874;24.150;-110.320;2023-02-17T07:46:41;14.10;99.90
64501;DHT22;50874;24.150;-110.320;2023-02-17T07:49:07;14.00;99.90
64501;DHT22;50874;24.150;-110.320;2023-02-17T07:51:34;14.00;99.90
64501;DHT22;50874;24.150;-110.320;2023-02-17T07:54:01;13.90;99.90
64501;DHT22;50874;24.150;-110.320;2023-02-17T07:56:27;13.80;99.90
64501;DHT22;50874;24.150;-110.320;2023-02-17T07:58:55;13.80;99.90
64501;DHT22;50874;24.150;-110.320;2023-02-17T08:01:23;13.80;99.90
64501;DHT22;50874;24.150;-110.320;2023-02-17T08:03:52;13.80;99.90
64501;DHT22;50874;24.150;-110.320;2023-02-17T08:06:21;13.70;99.90
64501;DHT22;50874;24.150;-110.320;2023-02-17T08:08:49;13.60;99.90
64501;DHT22;50874;24.150;-110.320;2023-02-17T08:11:34;13.60;99.90
64501;DHT22;50874;24.150;-110.320;2023-02-17T08:14:23;13.60;99.90
64501;DHT22;50874;24.150;-110.320;2023-02-17T08:16:50;13.70;99.90
64501;DHT22;50874;24.150;-110.320;2023-02-17T08:19:17;13.70;99.90
64501;DHT22;50874;24.150;-110.320;2023-02-17T08:21:43;13.80;99.90
64501;DHT22;50874;24.150;-110.320;2023-02-17T08:24:10;13.90;99.90
64501;DHT22;50874;24.150;-110.320;2023-02-17T08:26:39;13.90;99.90
64501;DHT22;50874;24.150;-110.320;2023-02-17T08:29:06;13.90;99.90
64501;DHT22;50874;24.150;-110.320;2023-02-17T08:31:34;14.00;99.90
64501;DHT22;50874;24.150;-110.320;2023-02-17T08:34:03;14.00;99.90
64501;DHT22;50874;24.150;-110.320;2023-02-17T08:36:30;14.10;99.90
64501;DHT22;50874;24.150;-110.320;2023-02-17T08:38:57;14.10;99.90
64501;DHT22;50874;24.150;-110.320;2023-02-17T08:41:30;14.00;99.90
64501;DHT22;50874;24.150;-110.320;2023-02-17T08:43:58;14.00;99.90
64501;DHT22;50874;24.150;-110.320;2023-02-17T08:46:26;14.00;99.90
64501;DHT22;50874;24.150;-110.320;2023-02-17T08:48:53;13.90;99.90
64501;DHT22;50874;24.150;-110.320;2023-02-17T08:51:21;13.90;99.90
64501;DHT22;50874;24.150;-110.320;2023-02-17T08:53:52;13.80;99.90
64501;DHT22;50874;24.150;-110.320;2023-02-17T08:56:22;13.70;99.90
64501;DHT22;50874;24.150;-110.320;2023-02-17T08:58:49;13.80;99.90
64501;DHT22;50874;24.150;-110.320;2023-02-17T09:01:16;13.70;99.90
64501;DHT22;50874;24.150;-110.320;2023-02-17T09:03:46;13.70;99.90
64501;DHT22;50874;24.150;-110.320;2023-02-17T09:06:13;13.70;99.90
64501;DHT22;50874;24.150;-110.320;2023-02-17T09:08:41;13.70;99.90
64501;DHT22;50874;24.150;-110.320;2023-02-17T09:11:08;13.60;99.90
64501;DHT22;50874;24.150;-110.320;2023-02-17T09:13:35;13.60;99.90
64501;DHT22;50874;24.150;-110.320;2023-02-17T09:16:02;13.60;99.90
64501;DHT22;50874;24.150;-110.320;2023-02-17T09:18:29;13.80;99.90
64501;DHT22;50874;24.150;-110.320;2023-02-17T09:20:55;13.70;99.90
64501;DHT22;50874;24.150;-110.320;2023-02-17T09:23:23;13.60;99.90
64501;DHT22;50874;24.150;-110.320;2023-02-17T09:25:49;13.60;99.90
64501;DHT22;50874;24.150;-110.320;2023-02-17T09:28:16;13.50;99.90
64501;DHT22;50874;24.150;-110.320;2023-02-17T09:30:42;13.50;99.90
64501;DHT22;50874;24.150;-110.320;2023-02-17T09:33:09;13.40;99.90
64501;DHT22;50874;24.150;-110.320;2023-02-17T09:35:36;13.40;99.90
64501;DHT22;50874;24.150;-110.320;2023-02-17T09:38:03;13.40;99.90
64501;DHT22;50874;24.150;-110.320;2023-02-17T09:40:43;13.50;99.90
64501;DHT22;50874;24.150;-110.320;2023-02-17T09:43:15;13.60;99.90
64501;DHT22;50874;24.150;-110.320;2023-02-17T09:45:50;13.70;99.90
64501;DHT22;50874;24.150;-110.320;2023-02-17T09:48:20;13.70;99.90
64501;DHT22;50874;24.150;-110.320;2023-02-17T09:50:57;13.70;99.90
64501;DHT22;50874;24.150;-110.320;2023-02-17T09:54:14;13.80;99.90
64501;DHT22;50874;24.150;-110.320;2023-02-17T09:56:25;13.70;99.90
64501;DHT22;50874;24.150;-110.320;2023-02-17T09:59:00;13.50;99.90
64501;DHT22;50874;24.150;-110.320;2023-02-17T10:01:32;13.50;99.90
64501;DHT22;50874;24.150;-110.320;2023-02-17T10:04:30;13.50;99.90
64501;DHT22;50874;24.150;-110.320;2023-02-17T10:07:07;13.40;99.90
64501;DHT22;50874;24.150;-110.320;2023-02-17T10:10:02;13.40;99.90
64501;DHT22;50874;24.150;-110.320;2023-02-17T10:12:29;13.40;99.90
64501;DHT22;50874;24.150;-110.320;2023-02-17T10:15:11;13.40;99.90
64501;DHT22;50874;24.150;-110.320;2023-02-17T10:18:03;13.40;99.90
64501;DHT22;50874;24.150;-110.320;2023-02-17T10:23:32;13.50;99.90
64501;DHT22;50874;24.150;-110.320;2023-02-17T10:34:09;13.60;99.90
64501;DHT22;50874;24.150;-110.320;2023-02-17T10:36:58;13.70;99.90
64501;DHT22;50874;24.150;-110.320;2023-02-17T10:39:50;13.50;99.90
64501;DHT22;50874;24.150;-110.320;2023-02-17T10:44:48;13.50;99.90
64501;DHT22;50874;24.150;-110.320;2023-02-17T10:47:16;13.50;99.90
64501;DHT22;50874;24.150;-110.320;2023-02-17T10:49:46;13.50;99.90
64501;DHT22;50874;24.150;-110.320;2023-02-17T10:52:35;13.40;99.90
64501;DHT22;50874;24.150;-110.320;2023-02-17T10:56:14;13.40;99.90
64501;DHT22;50874;24.150;-110.320;2023-02-17T11:00:55;13.40;99.90
64501;DHT22;50874;24.150;-110.320;2023-02-17T11:03:29;13.30;99.90
64501;DHT22;50874;24.150;-110.320;2023-02-17T11:06:04;13.20;99.90
64501;DHT22;50874;24.150;-110.320;2023-02-17T11:08:47;13.20;99.90
64501;DHT22;50874;24.150;-110.320;2023-02-17T11:11:23;13.20;99.90
64501;DHT22;50874;24.150;-110.320;2023-02-17T11:16:44;13.40;99.90
64501;DHT22;50874;24.150;-110.320;2023-02-17T11:19:24;13.60;99.90
64501;DHT22;50874;24.150;-110.320;2023-02-17T11:21:54;13.50;99.90
64501;DHT22;50874;24.150;-110.320;2023-02-17T11:24:21;13.40;99.90
64501;DHT22;50874;24.150;-110.320;2023-02-17T11:27:02;13.40;99.90
64501;DHT22;50874;24.150;-110.320;2023-02-17T11:29:30;13.30;99.90
64501;DHT22;50874;24.150;-110.320;2023-02-17T11:32:06;13.20;99.90
64501;DHT22;50874;24.150;-110.320;2023-02-17T11:34:37;13.30;99.90
64501;DHT22;50874;24.150;-110.320;2023-02-17T11:37:18;13.20;99.90
64501;DHT22;50874;24.150;-110.320;2023-02-17T11:39:50;13.20;99.90
64501;DHT22;50874;24.150;-110.320;2023-02-17T11:42:23;13.30;99.90
64501;DHT22;50874;24.150;-110.320;2023-02-17T11:44:52;13.40;99.90
64501;DHT22;50874;24.150;-110.320;2023-02-17T11:58:36;13.20;99.90
64501;DHT22;50874;24.150;-110.320;2023-02-17T12:04:03;13.10;99.90
64501;DHT22;50874;24.150;-110.320;2023-02-17T12:07:05;13.20;99.90
64501;DHT22;50874;24.150;-110.320;2023-02-17T12:15:28;13.30;99.90
64501;DHT22;50874;24.150;-110.320;2023-02-17T12:21:03;13.20;99.90
64501;DHT22;50874;24.150;-110.320;2023-02-17T12:26:21;13.10;99.90
64501;DHT22;50874;24.150;-110.320;2023-02-17T12:36:58;13.50;99.90
64501;DHT22;50874;24.150;-110.320;2023-02-17T12:39:41;13.60;99.90
64501;DHT22;50874;24.150;-110.320;2023-02-17T12:42:16;13.60;99.90
64501;DHT22;50874;24.150;-110.320;2023-02-17T12:44:52;13.60;99.90
64501;DHT22;50874;24.150;-110.320;2023-02-17T12:50:03;13.50;99.90
64501;DHT22;50874;24.150;-110.320;2023-02-17T12:52:36;13.40;99.90
64501;DHT22;50874;24.150;-110.320;2023-02-17T12:55:18;13.30;99.90
64501;DHT22;50874;24.150;-110.320;2023-02-17T12:57:54;13.40;99.90
64501;DHT22;50874;24.150;-110.320;2023-02-17T13:00:37;13.30;99.90
64501;DHT22;50874;24.150;-110.320;2023-02-17T13:03:04;13.30;99.90
64501;DHT22;50874;24.150;-110.320;2023-02-17T13:06:40;13.40;99.90
64501;DHT22;50874;24.150;-110.320;2023-02-17T13:09:13;13.40;99.90
64501;DHT22;50874;24.150;-110.320;2023-02-17T13:11:37;13.30;99.90
64501;DHT22;50874;24.150;-110.320;2023-02-17T13:17:20;13.20;99.90
64501;DHT22;50874;24.150;-110.320;2023-02-17T13:19:46;13.20;99.90
64501;DHT22;50874;24.150;-110.320;2023-02-17T13:22:21;13.40;99.90
64501;DHT22;50874;24.150;-110.320;2023-02-17T13:24:53;13.40;99.90
64501;DHT22;50874;24.150;-110.320;2023-02-17T13:30:43;13.40;99.90
64501;DHT22;50874;24.150;-110.320;2023-02-17T13:35:45;13.70;99.90
64501;DHT22;50874;24.150;-110.320;2023-02-17T13:38:12;13.60;99.90
64501;DHT22;50874;24.150;-110.320;2023-02-17T13:40:40;13.60;99.90
64501;DHT22;50874;24.150;-110.320;2023-02-17T13:43:16;13.50;99.90
64501;DHT22;50874;24.150;-110.320;2023-02-17T13:46:00;13.50;99.90
64501;DHT22;50874;24.150;-110.320;2023-02-17T13:48:34;13.40;99.90
64501;DHT22;50874;24.150;-110.320;2023-02-17T13:51:01;13.40;99.90
64501;DHT22;50874;24.150;-110.320;2023-02-17T13:56:23;13.50;99.90
64501;DHT22;50874;24.150;-110.320;2023-02-17T13:58:49;13.40;99.90
64501;DHT22;50874;24.150;-110.320;2023-02-17T14:01:18;13.40;99.90
64501;DHT22;50874;24.150;-110.320;2023-02-17T14:03:51;13.50;99.90
64501;DHT22;50874;24.150;-110.320;2023-02-17T14:06:27;13.60;99.90
64501;DHT22;50874;24.150;-110.320;2023-02-17T14:08:54;13.60;99.90
64501;DHT22;50874;24.150;-110.320;2023-02-17T14:11:23;13.50;99.90
64501;DHT22;50874;24.150;-110.320;2023-02-17T14:13:53;13.50;99.90
64501;DHT22;50874;24.150;-110.320;2023-02-17T14:16:29;13.50;99.90
64501;DHT22;50874;24.150;-110.320;2023-02-17T14:19:16;13.40;99.90
64501;DHT22;50874;24.150;-110.320;2023-02-17T14:21:55;13.50;99.90
64501;DHT22;50874;24.150;-110.320;2023-02-17T14:24:34;13.40;99.90
64501;DHT22;50874;24.150;-110.320;2023-02-17T14:27:04;13.50;99.90
64501;DHT22;50874;24.150;-110.320;2023-02-17T14:29:47;13.40;99.90
64501;DHT22;50874;24.150;-110.320;2023-02-17T14:32:32;13.50;99.90
64501;DHT22;50874;24.150;-110.320;2023-02-17T14:35:20;13.60;99.90
64501;DHT22;50874;24.150;-110.320;2023-02-17T14:37:46;13.60;99.90
64501;DHT22;50874;24.150;-110.320;2023-02-17T14:40:31;13.70;99.90
64501;DHT22;50874;24.150;-110.320;2023-02-17T14:42:57;13.80;99.90
64501;DHT22;50874;24.150;-110.320;2023-02-17T14:45:24;13.80;99.90
64501;DHT22;50874;24.150;-110.320;2023-02-17T14:47:50;13.90;99.90
64501;DHT22;50874;24.150;-110.320;2023-02-17T14:50:17;14.10;99.90
64501;DHT22;50874;24.150;-110.320;2023-02-17T14:52:48;14.20;99.90
64501;DHT22;50874;24.150;-110.320;2023-02-17T14:55:37;14.40;99.90
64501;DHT22;50874;24.150;-110.320;2023-02-17T14:58:19;14.50;99.90
64501;DHT22;50874;24.150;-110.320;2023-02-17T15:00:47;14.70;99.90
64501;DHT22;50874;24.150;-110.320;2023-02-17T15:03:14;14.90;99.90
64501;DHT22;50874;24.150;-110.320;2023-02-17T15:05:40;15.00;99.90
64501;DHT22;50874;24.150;-110.320;2023-02-17T15:08:16;15.10;99.90
64501;DHT22;50874;24.150;-110.320;2023-02-17T15:10:44;15.30;99.90
64501;DHT22;50874;24.150;-110.320;2023-02-17T15:13:14;15.40;99.90
64501;DHT22;50874;24.150;-110.320;2023-02-17T15:15:41;15.60;99.90
64501;DHT22;50874;24.150;-110.320;2023-02-17T15:18:13;15.80;99.90
64501;DHT22;50874;24.150;-110.320;2023-02-17T15:20:42;16.00;99.90
64501;DHT22;50874;24.150;-110.320;2023-02-17T15:23:20;16.20;99.90
64501;DHT22;50874;24.150;-110.320;2023-02-17T15:25:48;16.30;99.90
64501;DHT22;50874;24.150;-110.320;2023-02-17T15:28:17;16.50;99.90
64501;DHT22;50874;24.150;-110.320;2023-02-17T15:30:50;16.80;99.90
64501;DHT22;50874;24.150;-110.320;2023-02-17T15:33:19;17.20;99.90
64501;DHT22;50874;24.150;-110.320;2023-02-17T15:35:47;17.70;99.90
64501;DHT22;50874;24.150;-110.320;2023-02-17T15:38:15;17.90;99.90
64501;DHT22;50874;24.150;-110.320;2023-02-17T15:40:42;18.30;99.90
64501;DHT22;50874;24.150;-110.320;2023-02-17T15:43:12;18.40;99.90
64501;DHT22;50874;24.150;-110.320;2023-02-17T15:45:39;18.30;99.90
64501;DHT22;50874;24.150;-110.320;2023-02-17T15:48:25;18.50;99.90
64501;DHT22;50874;24.150;-110.320;2023-02-17T15:50:52;18.90;99.90
64501;DHT22;50874;24.150;-110.320;2023-02-17T15:53:19;19.30;99.90
64501;DHT22;50874;24.150;-110.320;2023-02-17T15:55:46;19.00;99.90
64501;DHT22;50874;24.150;-110.320;2023-02-17T15:58:15;18.90;99.90
64501;DHT22;50874;24.150;-110.320;2023-02-17T16:00:43;19.30;99.90
64501;DHT22;50874;24.150;-110.320;2023-02-17T16:03:13;19.50;99.90
64501;DHT22;50874;24.150;-110.320;2023-02-17T16:05:40;20.00;99.90
64501;DHT22;50874;24.150;-110.320;2023-02-17T16:08:07;19.40;99.90
64501;DHT22;50874;24.150;-110.320;2023-02-17T16:10:37;19.60;99.90
64501;DHT22;50874;24.150;-110.320;2023-02-17T16:13:11;20.00;99.90
64501;DHT22;50874;24.150;-110.320;2023-02-17T16:15:39;20.10;99.90
64501;DHT22;50874;24.150;-110.320;2023-02-17T16:18:19;20.30;99.90
64501;DHT22;50874;24.150;-110.320;2023-02-17T16:20:47;20.60;99.90
64501;DHT22;50874;24.150;-110.320;2023-02-17T16:23:14;20.60;99.90
64501;DHT22;50874;24.150;-110.320;2023-02-17T16:25:43;20.80;99.90
64501;DHT22;50874;24.150;-110.320;2023-02-17T16:28:18;20.80;99.90
64501;DHT22;50874;24.150;-110.320;2023-02-17T16:30:46;20.50;99.90
64501;DHT22;50874;24.150;-110.320;2023-02-17T16:33:15;20.40;99.90
64501;DHT22;50874;24.150;-110.320;2023-02-17T16:35:41;20.10;99.90
64501;DHT22;50874;24.150;-110.320;2023-02-17T16:38:17;20.40;99.90
64501;DHT22;50874;24.150;-110.320;2023-02-17T16:40:47;20.60;99.90
64501;DHT22;50874;24.150;-110.320;2023-02-17T16:43:20;21.00;99.90
64501;DHT22;50874;24.150;-110.320;2023-02-17T16:45:53;21.20;99.90
64501;DHT22;50874;24.150;-110.320;2023-02-17T16:48:26;21.60;99.90